| Date | Time | Temp. (oF) | Dew Point (oF) | Rel. Hum. (%) | Press. (in.) | Wind Dir. | Wind Speed (mph) | Hourly Rainfall (in.) |
|
|---|---|---|---|---|---|---|---|---|---|
| 1 | 10/06 | 00:00 | 42 | 40 | 95 | 30.10 | SSE | 1 | 0.00 |
| 2 | 10/05 | 23:00 | 42 | 40 | 95 | 30.10 | SSE | 2 | 0.00 |
| 3 | 10/05 | 22:00 | 43 | 39 | 88 | 30.09 | N | 0 | 0.00 |
| 4 | 10/05 | 21:00 | 46 | 40 | 81 | 30.07 | NNW | 1 | 0.00 |
| 5 | 10/05 | 20:00 | 51 | 38 | 62 | 30.05 | N | 0 | 0.00 |
| 6 | 10/05 | 19:00 | 55 | 37 | 52 | 30.03 | N | 0 | 0.00 |
| 7 | 10/05 | 18:00 | 58 | 35 | 43 | 30.00 | NNW | 2 | 0.00 |
| 8 | 10/05 | 17:00 | 59 | 36 | 43 | 29.99 | WNW | 7 | 0.00 |
| 9 | 10/05 | 16:00 | 60 | 37 | 44 | 29.99 | W | 10 | 0.00 |
| 10 | 10/05 | 15:00 | 59 | 37 | 45 | 30.00 | WNW | 10 | 0.00 |
| 11 | 10/05 | 14:00 | 58 | 38 | 49 | 30.02 | WNW | 10 | 0.00 |
| 12 | 10/05 | 13:00 | 56 | 39 | 53 | 30.03 | SSW | 6 | 0.00 |
| 13 | 10/05 | 12:00 | 55 | 37 | 51 | 30.03 | SW | 9 | 0.00 |
| 14 | 10/05 | 11:00 | 54 | 41 | 62 | 30.03 | WSW | 8 | 0.00 |
| 15 | 10/05 | 10:00 | 52 | 43 | 74 | 30.03 | WSW | 7 | 0.00 |
| 16 | 10/05 | 09:00 | 46 | 45 | 100 | 30.01 | SSW | 4 | 0.00 |
| 17 | 10/05 | 08:00 | 41 | 41 | 100 | 29.99 | SW | 2 | 0.00 |
| 18 | 10/05 | 07:00 | 39 | 39 | 100 | 29.97 | SSW | 2 | 0.00 |
| 19 | 10/05 | 06:00 | 39 | 39 | 100 | 29.96 | S | 2 | 0.00 |
| 20 | 10/05 | 05:00 | 40 | 40 | 100 | 29.95 | NNW | 0 | 0.00 |
| 21 | 10/05 | 04:00 | 41 | 41 | 100 | 29.94 | SW | 0 | 0.00 |
| 22 | 10/05 | 03:00 | 41 | 40 | 99 | 29.95 | W | 2 | 0.00 |
| 23 | 10/05 | 02:00 | 42 | 41 | 98 | 29.96 | SSW | 0 | 0.00 |
| 24 | 10/05 | 01:00 | 43 | 41 | 96 | 29.96 | S | 0 | 0.00 |